createdAt,value
2019-02-27T00:00:09.128Z,78628.52
2019-02-27T00:02:39.198Z,78634.59
2019-02-27T00:05:08.994Z,78637.64
2019-02-27T00:07:38.342Z,78636.63
2019-02-27T00:10:11.032Z,78637.64
2019-02-27T00:12:40.240Z,78634.59
2019-02-27T00:15:11.019Z,78637.64
2019-02-27T00:17:40.265Z,78637.64
2019-02-27T00:20:09.517Z,78644.72
2019-02-27T00:22:39.226Z,78643.71
2019-02-27T00:25:08.435Z,78644.72
2019-02-27T00:27:37.646Z,78649.79
2019-02-27T00:30:07.386Z,78648.78
2019-02-27T00:32:36.627Z,78651.81
2019-02-27T00:35:07.200Z,78653.84
2019-02-27T00:37:36.621Z,78652.83
2019-02-27T00:40:06.286Z,78663.97
2019-02-27T00:42:35.497Z,78663.97
2019-02-27T00:45:07.042Z,78665.99
2019-02-27T00:47:36.079Z,78669.03
2019-02-27T00:50:06.540Z,78675.11
2019-02-27T00:52:36.249Z,78675.11
2019-02-27T00:55:06.021Z,78678.14
2019-02-27T00:57:35.344Z,78680.17
2019-02-27T01:00:06.595Z,78679.16
2019-02-27T01:02:35.730Z,78681.19
2019-02-27T01:05:06.259Z,78690.30
2019-02-27T01:07:36.300Z,78690.30
2019-02-27T01:10:06.217Z,78704.47
2019-02-27T01:12:41.215Z,78709.54
2019-02-27T01:15:11.220Z,78712.58
2019-02-27T01:17:40.450Z,78718.66
2019-02-27T01:20:11.515Z,78717.64
2019-02-27T01:22:41.270Z,78720.68
2019-02-27T01:25:10.612Z,78720.68
2019-02-27T01:27:39.900Z,78720.68
2019-02-27T01:30:10.717Z,78726.76
2019-02-27T01:32:40.164Z,78732.83
2019-02-27T01:35:09.671Z,78732.83
2019-02-27T01:37:38.877Z,78739.92
2019-02-27T01:40:09.971Z,78740.94
2019-02-27T01:42:39.180Z,78741.95
2019-02-27T01:45:10.744Z,78744.98
2019-02-27T01:47:40.046Z,78743.97
2019-02-27T01:50:29.686Z,78742.95
2019-02-27T01:52:58.839Z,78740.94
2019-02-27T01:55:28.211Z,78747.02
2019-02-27T01:57:57.380Z,78743.97
2019-02-27T02:00:26.549Z,78752.08
2019-02-27T02:02:55.851Z,78755.11
2019-02-27T02:05:27.455Z,78758.16
2019-02-27T02:07:56.709Z,78759.16
2019-02-27T02:10:28.278Z,78763.22
2019-02-27T02:13:00.734Z,78763.22
2019-02-27T02:15:55.396Z,78759.16
2019-02-27T02:19:21.445Z,78755.11
2019-02-27T02:22:14.187Z,78755.11
2019-02-27T02:25:21.117Z,78757.14
2019-02-27T02:28:32.398Z,78754.09
2019-02-27T02:31:41.246Z,78751.06
2019-02-27T02:34:48.681Z,78740.94
2019-02-27T02:37:57.334Z,78746.00
2019-02-27T02:41:07.964Z,78738.91
2019-02-27T02:43:59.630Z,78747.02
2019-02-27T02:46:54.031Z,78754.09
2019-02-27T02:49:53.571Z,78760.17
2019-02-27T02:52:52.256Z,78764.23
2019-02-27T02:55:50.769Z,78766.25
2019-02-27T02:58:25.974Z,78766.25
2019-02-27T03:01:16.892Z,78778.41
2019-02-27T03:03:51.033Z,78781.44
2019-02-27T03:07:12.557Z,78785.49
2019-02-27T03:10:07.142Z,78780.43
2019-02-27T03:13:20.206Z,78784.48
2019-02-27T03:16:03.983Z,78786.50
2019-02-27T03:18:51.396Z,78783.47
2019-02-27T03:22:07.847Z,78783.47
2019-02-27T03:25:27.507Z,78781.44
2019-02-27T03:28:32.209Z,78780.43
2019-02-27T03:31:41.555Z,78785.49
2019-02-27T03:34:51.377Z,78781.44
2019-02-27T03:38:23.851Z,78784.48
2019-02-27T03:41:49.304Z,78788.53
2019-02-27T03:44:43.190Z,78800.69
2019-02-27T03:47:36.418Z,78807.78
2019-02-27T03:50:28.088Z,78807.78
2019-02-27T03:53:56.546Z,78815.88
2019-02-27T03:57:20.128Z,78811.83
2019-02-27T04:00:19.209Z,78808.79
2019-02-27T04:03:08.139Z,78811.83
2019-02-27T04:06:01.122Z,78814.86
2019-02-27T04:08:58.011Z,78814.86
2019-02-27T04:11:27.479Z,78813.85
2019-02-27T04:14:07.693Z,78811.83
2019-02-27T04:16:38.084Z,78818.91
2019-02-27T04:19:07.431Z,78811.83
2019-02-27T04:21:36.661Z,78818.91
2019-02-27T04:24:05.857Z,78813.85
2019-02-27T04:26:35.059Z,78826.00
2019-02-27T04:29:07.614Z,78820.94
2019-02-27T04:31:35.377Z,78829.05
2019-02-27T04:34:04.564Z,78834.11
2019-02-27T04:36:36.172Z,78835.12
2019-02-27T04:39:06.243Z,78831.06
2019-02-27T04:41:35.361Z,78837.14
2019-02-27T04:44:06.040Z,78833.09
2019-02-27T04:46:35.395Z,78838.16
2019-02-27T04:49:05.192Z,78841.20
2019-02-27T04:51:34.487Z,78838.16
2019-02-27T04:54:06.327Z,78843.22
2019-02-27T04:56:34.584Z,78839.17
2019-02-27T04:59:04.046Z,78841.20
2019-02-27T05:01:36.373Z,78844.23
2019-02-27T05:04:04.189Z,78846.26
2019-02-27T05:06:33.378Z,78848.28
2019-02-27T05:09:06.473Z,78845.25
2019-02-27T05:11:38.667Z,78849.30
2019-02-27T05:14:07.791Z,78851.33
2019-02-27T05:16:39.133Z,78851.33
2019-02-27T05:19:08.294Z,78859.42
2019-02-27T05:21:37.601Z,78863.48
2019-02-27T05:24:07.868Z,78864.48
2019-02-27T05:26:37.984Z,78866.52
2019-02-27T05:29:13.476Z,78865.50
2019-02-27T05:31:45.901Z,78866.52
2019-02-27T05:34:15.139Z,78870.56
2019-02-27T05:36:44.520Z,78869.55
2019-02-27T05:39:14.941Z,78869.55
2019-02-27T05:41:44.908Z,78864.48
2019-02-27T05:44:14.608Z,78861.45
2019-02-27T05:46:43.905Z,78863.48
2019-02-27T05:49:13.166Z,78855.38
2019-02-27T05:51:42.466Z,78858.41
2019-02-27T05:54:11.773Z,78864.48
2019-02-27T05:56:41.058Z,78865.50
2019-02-27T05:59:10.323Z,78868.55
2019-02-27T06:01:42.413Z,78866.52
2019-02-27T06:04:11.631Z,78870.56
2019-02-27T06:06:45.162Z,78874.62
2019-02-27T06:09:13.830Z,78877.66
2019-02-27T06:11:45.335Z,78878.67
2019-02-27T06:14:14.554Z,78875.63
2019-02-27T06:16:45.605Z,78874.62
2019-02-27T06:19:14.914Z,78871.58
2019-02-27T06:21:44.180Z,78875.63
2019-02-27T06:24:13.374Z,78876.64
2019-02-27T06:26:42.650Z,78880.70
2019-02-27T06:29:11.917Z,78888.80
2019-02-27T06:31:41.139Z,78890.82
2019-02-27T06:34:11.610Z,78885.76
2019-02-27T06:36:42.849Z,78889.81
2019-02-27T06:39:11.826Z,78888.80
2019-02-27T06:41:41.076Z,78896.90
2019-02-27T06:44:10.587Z,78896.90
2019-02-27T06:46:41.930Z,78903.98
2019-02-27T06:49:11.263Z,78903.98
2019-02-27T06:51:40.439Z,78894.88
2019-02-27T06:54:10.591Z,78886.77
2019-02-27T06:56:39.853Z,78888.80
2019-02-27T06:59:09.050Z,78885.76
2019-02-27T07:01:38.965Z,78888.80
2019-02-27T07:04:10.229Z,78884.74
2019-02-27T07:06:39.441Z,78878.67
2019-02-27T07:09:11.400Z,78870.56
2019-02-27T07:11:39.835Z,78870.56
2019-02-27T07:14:10.876Z,78865.50
2019-02-27T07:16:40.113Z,78854.36
2019-02-27T07:19:09.576Z,78854.36
2019-02-27T07:21:38.768Z,78851.33
2019-02-27T07:24:08.025Z,78842.20
2019-02-27T07:26:37.239Z,78842.20
2019-02-27T07:29:06.512Z,78836.13
2019-02-27T07:31:35.752Z,78833.09
2019-02-27T07:34:05.083Z,78821.95
2019-02-27T07:36:35.951Z,78812.84
2019-02-27T07:39:06.601Z,78801.70
2019-02-27T07:41:36.115Z,78787.52
2019-02-27T07:44:05.378Z,78785.49
2019-02-27T07:46:35.591Z,78771.31
2019-02-27T07:49:05.109Z,78767.27
2019-02-27T07:51:34.315Z,78757.14
2019-02-27T07:54:04.015Z,78744.98
2019-02-27T07:56:33.452Z,78741.95
2019-02-27T07:59:02.816Z,78737.89
2019-02-27T08:01:32.036Z,78734.86
2019-02-27T08:04:01.182Z,78729.80
2019-02-27T08:06:30.563Z,78721.69
2019-02-27T08:09:02.607Z,78711.56
2019-02-27T08:11:32.390Z,78703.46
2019-02-27T08:14:03.377Z,78695.36
2019-02-27T08:16:32.687Z,78692.33
2019-02-27T08:19:01.925Z,78682.20
2019-02-27T08:21:31.480Z,78674.09
2019-02-27T08:24:06.484Z,78658.91
2019-02-27T08:26:31.738Z,78641.69
2019-02-27T08:29:00.975Z,78623.45
2019-02-27T08:31:32.054Z,78611.30
2019-02-27T08:34:01.150Z,78604.22
2019-02-27T08:36:30.377Z,78590.04
2019-02-27T08:38:59.565Z,78573.84
2019-02-27T08:41:29.177Z,78556.63
2019-02-27T08:43:59.673Z,78540.42
2019-02-27T08:46:28.838Z,78514.09
2019-02-27T08:48:58.117Z,78498.90
2019-02-27T08:51:27.611Z,78481.69
2019-02-27T08:53:59.228Z,78469.53
2019-02-27T08:56:29.926Z,78449.28
2019-02-27T08:58:58.779Z,78431.05
2019-02-27T09:01:27.981Z,78400.67
2019-02-27T09:03:57.156Z,78382.45
2019-02-27T09:06:27.501Z,78368.27
2019-02-27T09:09:00.162Z,78349.03
2019-02-27T09:11:29.422Z,78328.78
2019-02-27T09:13:59.670Z,78303.46
2019-02-27T09:16:28.897Z,78282.20
2019-02-27T09:18:58.134Z,78271.06
2019-02-27T09:21:28.547Z,78252.83
2019-02-27T09:23:57.937Z,78241.69
2019-02-27T09:26:27.145Z,78221.44
2019-02-27T09:28:56.842Z,78206.25
2019-02-27T09:31:26.061Z,78191.06
2019-02-27T09:33:55.373Z,78192.08
2019-02-27T09:36:24.590Z,78169.80
2019-02-27T09:38:57.289Z,78154.61
2019-02-27T09:41:24.734Z,78137.40
2019-02-27T09:43:54.270Z,78125.25
2019-02-27T09:46:23.610Z,78114.11
2019-02-27T09:48:52.805Z,78098.92
2019-02-27T09:51:22.188Z,78073.61
2019-02-27T09:53:52.310Z,78073.61
2019-02-27T09:56:21.558Z,78061.45
2019-02-27T09:58:50.776Z,78050.32
2019-02-27T10:01:20.060Z,78033.11
2019-02-27T10:03:52.106Z,78021.97
2019-02-27T10:06:21.366Z,78023.99
2019-02-27T10:08:50.575Z,78018.93
2019-02-27T10:11:22.219Z,78000.70
2019-02-27T10:13:50.941Z,77997.67
2019-02-27T10:16:20.275Z,77978.43
2019-02-27T10:18:49.437Z,77965.27
2019-02-27T10:21:18.637Z,77952.11
2019-02-27T10:23:50.918Z,77942.99
2019-02-27T10:26:22.608Z,77931.86
2019-02-27T10:28:51.369Z,77930.84
2019-02-27T10:31:20.575Z,77920.72
2019-02-27T10:33:49.732Z,77898.44
2019-02-27T10:36:19.277Z,77898.44
2019-02-27T10:38:48.443Z,77891.36
2019-02-27T10:41:17.691Z,77888.31
2019-02-27T10:43:46.933Z,77873.13
2019-02-27T10:46:16.101Z,77864.02
2019-02-27T10:48:46.965Z,77851.87
2019-02-27T10:51:16.842Z,77829.59
2019-02-27T10:53:46.049Z,77819.47
2019-02-27T10:56:15.346Z,77813.39
2019-02-27T10:58:47.607Z,77797.19
2019-02-27T11:01:18.245Z,77784.03
2019-02-27T11:03:47.409Z,77773.91
2019-02-27T11:06:16.934Z,77754.67
2019-02-27T11:08:46.285Z,77738.47
2019-02-27T11:11:16.278Z,77728.34
2019-02-27T11:13:48.416Z,77715.19
2019-02-27T11:16:20.870Z,77706.08
2019-02-27T11:18:47.940Z,77684.81
2019-02-27T11:21:17.095Z,77663.55
2019-02-27T11:23:46.381Z,77646.34
2019-02-27T11:26:16.739Z,77635.20
2019-02-27T11:28:47.741Z,77620.02
2019-02-27T11:31:20.653Z,77600.78
2019-02-27T11:33:50.515Z,77586.61
2019-02-27T11:36:20.436Z,77580.53
2019-02-27T11:41:39.832Z,77548.14
2019-02-27T11:44:13.867Z,77542.06
2019-02-27T11:46:40.940Z,77528.91
2019-02-27T11:49:13.191Z,77519.80
2019-02-27T11:51:43.009Z,77505.62
2019-02-27T11:54:14.521Z,77489.42
2019-02-27T11:56:48.050Z,77479.30
2019-02-27T11:59:17.274Z,77477.27
2019-02-27T12:01:47.677Z,77468.16
2019-02-27T12:04:19.526Z,77473.22
2019-02-27T12:06:48.671Z,77471.20
2019-02-27T12:09:18.096Z,77460.06
2019-02-27T12:11:49.448Z,77442.85
2019-02-27T12:14:19.064Z,77431.72
2019-02-27T12:16:51.686Z,77428.68
2019-02-27T12:19:19.539Z,77407.42
2019-02-27T12:21:51.639Z,77363.89
2019-02-27T12:24:22.052Z,77245.45
2019-02-27T12:26:56.873Z,77182.69
2019-02-27T12:29:32.266Z,77098.67
2019-02-27T12:32:14.348Z,76999.47
2019-02-27T12:34:45.850Z,76961.01
2019-02-27T12:37:27.506Z,76689.75
2019-02-27T12:39:49.620Z,76483.28
2019-02-27T12:42:21.175Z,76404.34
2019-02-27T12:44:53.681Z,76406.36
2019-02-27T12:47:31.770Z,76359.81
2019-02-27T12:50:09.496Z,76289.98
2019-02-27T12:52:48.162Z,76257.59
2019-02-27T12:55:20.549Z,76260.63
2019-02-27T12:57:54.190Z,76288.97
2019-02-27T13:00:31.696Z,76279.86
2019-02-27T13:03:09.314Z,76221.16
2019-02-27T13:05:39.230Z,76196.88
2019-02-27T13:08:11.358Z,76120.98
2019-02-27T13:10:43.809Z,76040.02
2019-02-27T13:13:15.369Z,76055.20
2019-02-27T13:15:46.189Z,75934.78
2019-02-27T13:18:21.089Z,75988.41
2019-02-27T13:20:51.179Z,75895.31
2019-02-27T13:23:20.761Z,75915.55
2019-02-27T13:25:50.883Z,75951.98
2019-02-27T13:28:23.381Z,75907.45
2019-02-27T13:30:53.743Z,75878.11
2019-02-27T13:33:51.060Z,75938.83
2019-02-27T13:36:20.457Z,76029.91
2019-02-27T13:38:53.493Z,76061.27
2019-02-27T13:41:26.203Z,75989.42
2019-02-27T13:43:58.277Z,75886.20
2019-02-27T13:46:29.775Z,75865.97
2019-02-27T13:49:01.547Z,75774.91
2019-02-27T13:51:37.275Z,75764.78
2019-02-27T13:54:10.182Z,75787.05
2019-02-27T13:56:46.500Z,75819.42
2019-02-27T13:59:21.363Z,75907.45
2019-02-27T14:02:00.629Z,75887.22
2019-02-27T14:04:35.027Z,75892.28
2019-02-27T14:07:04.438Z,75962.10
2019-02-27T14:09:35.352Z,75860.91
2019-02-27T14:12:19.813Z,75816.39
2019-02-27T14:14:53.416Z,75812.34
2019-02-27T14:17:42.104Z,75856.86
2019-02-27T14:20:19.280Z,75918.59
2019-02-27T14:22:55.528Z,75998.53
2019-02-27T14:25:33.478Z,76046.09
2019-02-27T14:28:06.711Z,76147.28
2019-02-27T14:30:43.873Z,76252.53
2019-02-27T14:33:15.839Z,76341.59
2019-02-27T14:35:58.361Z,76421.55
2019-02-27T14:38:28.396Z,76471.13
2019-02-27T14:40:58.012Z,76518.70
2019-02-27T14:43:28.771Z,76575.38
2019-02-27T14:45:58.459Z,76613.84
2019-02-27T14:48:28.321Z,76634.08
2019-02-27T14:50:59.739Z,76654.32
2019-02-27T14:53:29.043Z,76675.58
2019-02-27T14:55:59.145Z,76700.88
2019-02-27T14:58:29.164Z,76708.98
2019-02-27T15:00:58.934Z,76721.13
2019-02-27T15:03:29.990Z,76742.38
2019-02-27T15:05:59.426Z,76751.48
2019-02-27T15:08:33.995Z,76755.53
2019-02-27T15:11:09.010Z,76768.70
2019-02-27T15:13:38.924Z,76776.79
2019-02-27T15:16:15.411Z,76794.00
2019-02-27T15:18:44.902Z,76812.22
2019-02-27T15:21:14.223Z,76814.23
2019-02-27T15:23:43.939Z,76830.44
2019-02-27T15:26:16.331Z,76826.39
2019-02-27T15:28:47.444Z,76830.44
2019-02-27T15:31:21.350Z,76831.45
2019-02-27T15:33:49.913Z,76836.51
2019-02-27T15:36:20.427Z,76837.52
2019-02-27T15:38:51.008Z,76827.40
2019-02-27T15:41:21.649Z,76819.30
2019-02-27T15:44:00.122Z,76813.23
2019-02-27T15:46:29.627Z,76826.39
2019-02-27T15:49:00.397Z,76833.47
2019-02-27T15:51:32.358Z,76814.23
2019-02-27T15:54:00.970Z,76822.34
2019-02-27T15:56:30.480Z,76837.52
2019-02-27T15:59:05.056Z,76837.52
2019-02-27T16:01:33.065Z,76841.57
2019-02-27T16:04:02.675Z,76841.57
2019-02-27T16:06:31.912Z,76839.55
2019-02-27T16:09:01.206Z,76835.50
2019-02-27T16:11:30.440Z,76841.57
2019-02-27T16:14:01.937Z,76842.58
2019-02-27T16:16:31.169Z,76836.51
2019-02-27T16:19:02.238Z,76823.34
2019-02-27T16:21:31.403Z,76823.34
2019-02-27T16:24:00.669Z,76829.42
2019-02-27T16:26:30.033Z,76830.44
2019-02-27T16:28:59.247Z,76844.61
2019-02-27T16:31:28.529Z,76859.79
2019-02-27T16:33:58.521Z,76870.92
2019-02-27T16:36:36.056Z,76887.12
2019-02-27T16:38:59.590Z,76904.33
2019-02-27T16:41:29.304Z,76916.47
2019-02-27T16:43:58.581Z,76907.36
2019-02-27T16:46:27.887Z,76907.36
2019-02-27T16:48:59.372Z,76916.47
2019-02-27T16:51:31.187Z,76912.42
2019-02-27T16:53:59.523Z,76910.40
2019-02-27T16:56:28.730Z,76918.50
2019-02-27T16:58:58.312Z,76933.67
2019-02-27T17:01:29.532Z,76938.73
2019-02-27T17:04:00.403Z,76940.77
2019-02-27T17:06:29.712Z,76950.89
2019-02-27T17:08:58.905Z,76961.01
2019-02-27T17:11:29.411Z,76968.09
2019-02-27T17:13:59.075Z,76978.22
2019-02-27T17:16:28.226Z,76992.39
2019-02-27T17:19:01.810Z,77002.51
2019-02-27T17:21:35.193Z,77020.73
2019-02-27T17:24:05.119Z,77033.89
2019-02-27T17:26:39.187Z,77039.96
2019-02-27T17:29:10.708Z,77049.07
2019-02-27T17:31:48.961Z,77054.13
2019-02-27T17:34:13.784Z,77069.31
2019-02-27T17:36:43.708Z,77078.42
2019-02-27T17:39:13.843Z,77091.59
2019-02-27T17:41:45.683Z,77100.70
2019-02-27T17:44:15.378Z,77106.77
2019-02-27T17:46:46.099Z,77110.81
2019-02-27T17:49:15.654Z,77122.97
2019-02-27T17:51:47.182Z,77123.98
2019-02-27T17:54:17.831Z,77127.02
2019-02-27T17:56:49.979Z,77139.16
2019-02-27T17:59:20.188Z,77146.25
2019-02-27T18:01:51.481Z,77154.34
2019-02-27T18:04:24.329Z,77161.43
2019-02-27T18:06:53.776Z,77164.47
2019-02-27T18:09:26.386Z,77175.60
2019-02-27T18:11:55.066Z,77182.69
2019-02-27T18:14:27.517Z,77184.71
2019-02-27T18:16:59.251Z,77197.88
2019-02-27T18:19:28.392Z,77198.89
2019-02-27T18:21:57.701Z,77208.00
2019-02-27T18:24:27.237Z,77215.08
2019-02-27T18:26:56.746Z,77216.09
2019-02-27T18:29:28.369Z,77223.18
2019-02-27T18:31:58.736Z,77225.20
2019-02-27T18:34:29.022Z,77223.18
2019-02-27T18:36:58.884Z,77232.29
2019-02-27T18:39:28.195Z,77238.37
2019-02-27T18:41:58.069Z,77240.39
2019-02-27T18:44:28.176Z,77245.45
2019-02-27T18:47:02.429Z,77251.52
2019-02-27T18:49:32.789Z,77252.53
2019-02-27T18:52:06.449Z,77255.57
2019-02-27T18:54:35.128Z,77252.53
2019-02-27T18:57:04.855Z,77256.59
2019-02-27T18:59:34.888Z,77255.57
2019-02-27T19:02:07.759Z,77253.55
2019-02-27T19:04:39.529Z,77258.61
2019-02-27T19:07:12.787Z,77262.66
2019-02-27T19:09:42.689Z,77266.70
2019-02-27T19:12:14.792Z,77270.76
2019-02-27T19:14:48.166Z,77276.83
2019-02-27T19:17:17.512Z,77280.88
2019-02-27T19:19:48.976Z,77284.93
2019-02-27T19:22:21.199Z,77284.93
2019-02-27T19:24:50.977Z,77285.94
2019-02-27T19:27:22.670Z,77282.91
2019-02-27T19:29:52.479Z,77283.92
2019-02-27T19:32:23.322Z,77293.03
2019-02-27T19:34:53.300Z,77298.09
2019-02-27T19:37:25.067Z,77300.11
2019-02-27T19:39:56.299Z,77312.27
2019-02-27T19:42:26.772Z,77312.27
2019-02-27T19:44:56.001Z,77314.28
2019-02-27T19:47:25.241Z,77320.36
2019-02-27T19:49:54.661Z,77315.30
2019-02-27T19:52:26.847Z,77321.38
2019-02-27T19:54:55.057Z,77323.40
2019-02-27T19:57:24.699Z,77323.40
2019-02-27T19:59:59.136Z,77324.41
2019-02-27T20:02:27.738Z,77331.50
2019-02-27T20:05:00.488Z,77338.58
2019-02-27T20:07:32.899Z,77344.66
2019-02-27T20:10:05.662Z,77344.66
2019-02-27T20:12:35.006Z,77341.63
2019-02-27T20:15:08.394Z,77355.79
2019-02-27T20:17:38.638Z,77356.80
2019-02-27T20:20:08.816Z,77359.84
2019-02-27T20:22:39.511Z,77367.94
2019-02-27T20:25:10.362Z,77376.04
2019-02-27T20:27:39.721Z,77377.05
2019-02-27T20:30:14.049Z,77380.09
2019-02-27T20:32:42.016Z,77384.14
2019-02-27T20:35:11.637Z,77394.27
2019-02-27T20:37:41.379Z,77394.27
2019-02-27T20:40:11.643Z,77396.28
2019-02-27T20:42:40.902Z,77403.38
2019-02-27T20:45:12.356Z,77410.45
2019-02-27T20:47:42.361Z,77407.42
2019-02-27T20:50:21.450Z,77414.51
2019-02-27T20:52:50.174Z,77420.58
2019-02-27T20:55:19.565Z,77424.63
2019-02-27T20:57:49.125Z,77429.69
2019-02-27T21:00:19.082Z,77429.69
2019-02-27T21:02:50.328Z,77431.72
2019-02-27T21:05:21.098Z,77436.78
2019-02-27T21:07:50.409Z,77443.86
2019-02-27T21:10:21.178Z,77441.84
2019-02-27T21:12:53.837Z,77451.97
2019-02-27T21:15:21.671Z,77458.04
2019-02-27T21:17:57.606Z,77463.10
2019-02-27T21:20:25.001Z,77470.19
2019-02-27T21:22:54.289Z,77472.21
2019-02-27T21:25:23.553Z,77464.11
2019-02-27T21:27:55.998Z,77456.02
2019-02-27T21:30:25.460Z,77439.81
2019-02-27T21:32:55.098Z,77387.17
2019-02-27T21:35:28.696Z,77360.86
2019-02-27T21:37:55.566Z,77329.47
2019-02-27T21:40:27.209Z,77316.31
2019-02-27T21:42:56.834Z,77313.27
2019-02-27T21:45:26.018Z,77320.36
2019-02-27T21:47:55.386Z,77319.34
2019-02-27T21:50:24.611Z,77304.16
2019-02-27T21:52:54.738Z,77300.11
2019-02-27T21:55:24.915Z,77296.06
2019-02-27T21:57:58.067Z,77296.06
2019-02-27T22:00:26.238Z,77297.08
2019-02-27T22:02:55.676Z,77307.20
2019-02-27T22:05:25.008Z,77311.25
2019-02-27T22:07:54.349Z,77321.38
2019-02-27T22:10:23.614Z,77317.33
2019-02-27T22:12:53.125Z,77329.47
2019-02-27T22:15:24.706Z,77336.55
2019-02-27T22:17:53.881Z,77340.61
2019-02-27T22:20:25.813Z,77338.58
2019-02-27T22:22:54.043Z,77330.48
2019-02-27T22:25:32.375Z,77336.55
2019-02-27T22:28:01.597Z,77343.64
2019-02-27T22:30:33.748Z,77333.52
2019-02-27T22:33:15.202Z,77335.55
2019-02-27T22:35:44.445Z,77356.80
2019-02-27T22:38:13.704Z,77361.87
2019-02-27T22:40:42.983Z,77357.81
2019-02-27T22:43:12.197Z,77371.98
2019-02-27T22:45:44.009Z,77382.11
2019-02-27T22:48:12.379Z,77392.23
2019-02-27T22:50:41.908Z,77398.31
2019-02-27T22:53:11.318Z,77420.58
2019-02-27T22:55:42.245Z,77449.94
2019-02-27T22:58:11.895Z,77470.19
2019-02-27T23:01:14.982Z,77497.52
2019-02-27T23:03:46.569Z,77514.73
2019-02-27T23:06:15.817Z,77535.98
2019-02-27T23:08:44.969Z,77551.17
2019-02-27T23:11:14.407Z,77567.38
2019-02-27T23:13:47.505Z,77585.59
2019-02-27T23:16:17.807Z,77600.78
2019-02-27T23:18:46.998Z,77608.88
2019-02-27T23:21:16.348Z,77622.05
2019-02-27T23:23:45.572Z,77637.23
2019-02-27T23:26:19.755Z,77642.30
2019-02-27T23:28:45.737Z,77654.44
2019-02-27T23:31:22.398Z,77657.48
2019-02-27T23:33:48.759Z,77665.58
2019-02-27T23:36:21.964Z,77672.66
2019-02-27T23:38:50.532Z,77683.80
2019-02-27T23:41:22.638Z,77685.83
2019-02-27T23:43:50.630Z,77683.80
2019-02-27T23:46:20.249Z,77691.91
2019-02-27T23:48:49.485Z,77689.88
2019-02-27T23:51:18.743Z,77695.95
2019-02-27T23:53:48.014Z,77692.91
2019-02-27T23:56:20.211Z,77693.92
2019-02-27T23:58:49.042Z,77702.02
